Ironwood, MI

10:06 PM CDT on April 19, 2018 (GMT -0500)
Gogebic-Iron County

Weather History for KIWD - October, 2011

Change the Weather History Date:

Monday, October 3, 2011

  Actual Average Record
Temperature  
Mean Temperature 56 °F -  
Max Temperature 75 °F 56 °F 82 °F (1997)
Min Temperature 37 °F 37 °F 19 °F (1999)
Degree Days  
Heating Degree Days 9    
Growing Degree Days 6 (Base 50)    
Moisture  
Dew Point 44 °F    
Average Humidity 67    
Maximum Humidity 100    
Minimum Humidity 31    
Precipitation  
Precipitation 0.00 in - - ()
Sea Level Pressure  
Sea Level Pressure 30.19 in    
Wind  
Wind Speed 2 mph (South)    
Max Wind Speed 9 mph    
Max Gust Speed -    
Visibility 10 miles    
Events      
Averages and records for this station are not official NWS values.
T = Trace of Precipitation, MM = Missing Value Source: NWS Daily Summary

Daily Weather History Graph

Daily Weather History Graph

Search for Another Location

Airport or City:

Astronomy

Oct. 03, 2011 Rise Set
Actual Time 7:01 AM CDT 6:36 PM CDT
Civil Twilight 6:31 AM CDT 7:06 PM CDT
Nautical Twilight 5:56 AM CDT 7:41 PM CDT
Astronomical Twilight 5:20 AM CDT 8:17 PM CDT
Moon 2:18 PM CDT (10/3) 11:21 PM CDT (10/3)
Length of Visible Light 12h 35m
Length of Day
11h 35m
Waxing Crescent, 45% of the Moon is Illuminated
Oct 3
Waxing Crescent
Oct 3
First Quarter
Oct 11
Full
Oct 19
Last Quarter
Oct 26
New

Hourly Weather History & Observations

Time (CDT) Temp. Dew Point Humidity Pressure Visibility Wind Dir Wind Speed Gust Speed Precip Events Conditions
12:15 AM 44.6 °F 42.8 °F 93% 30.17 in 10.0 mi Calm Calm - N/A   Clear
12:35 AM 44.6 °F 42.8 °F 93% 30.18 in 10.0 mi Calm Calm - N/A   Clear
12:55 AM 44.6 °F 42.8 °F 93% 30.18 in 10.0 mi Calm Calm - N/A   Clear
1:15 AM 44.6 °F 41.0 °F 87% 30.18 in 10.0 mi Calm Calm - N/A   Clear
1:35 AM 42.8 °F 41.0 °F 93% 30.18 in 5.0 mi Calm Calm - N/A   Clear
1:55 AM 42.8 °F 39.2 °F 87% 30.19 in 10.0 mi Calm Calm - N/A   Clear
2:15 AM 42.8 °F 42.8 °F 100% 30.19 in 10.0 mi Calm Calm - N/A   Clear
2:35 AM 42.8 °F 42.8 °F 100% 30.19 in 10.0 mi Calm Calm - N/A   Clear
5:55 AM 39.2 °F 37.4 °F 93% 30.21 in 10.0 mi Calm Calm - N/A   Clear
6:15 AM 39.2 °F 37.4 °F 93% 30.21 in 10.0 mi Calm Calm - N/A   Clear
6:35 AM 39.2 °F 37.4 °F 93% 30.21 in 10.0 mi Calm Calm - N/A   Clear
6:55 AM 39.2 °F 37.4 °F 93% 30.22 in 10.0 mi Calm Calm - N/A   Clear
7:15 AM 39.2 °F 37.4 °F 93% 30.22 in 10.0 mi Calm Calm - N/A   Clear
7:35 AM 37.4 °F 37.4 °F 100% 30.22 in 10.0 mi Calm Calm - N/A   Clear
7:55 AM 39.2 °F 39.2 °F 100% 30.22 in 10.0 mi Calm Calm - N/A   Clear
8:15 AM 44.6 °F 42.8 °F 93% 30.22 in 10.0 mi Calm Calm - N/A   Clear
8:35 AM 51.8 °F 44.6 °F 76% 30.22 in 10.0 mi South 4.6 mph - N/A   Clear
8:55 AM 55.4 °F 44.6 °F 67% 30.22 in 10.0 mi South 6.9 mph - N/A   Clear
9:15 AM 57.2 °F 44.6 °F 63% 30.23 in 10.0 mi South 6.9 mph - N/A   Clear
9:35 AM 57.2 °F 44.6 °F 63% 30.23 in 10.0 mi South 9.2 mph - N/A   Clear
9:55 AM 60.8 °F 44.6 °F 55% 30.23 in 10.0 mi South 3.5 mph - N/A   Clear
10:15 AM 62.6 °F 44.6 °F 52% 30.23 in 10.0 mi South 4.6 mph - N/A   Clear
10:35 AM 64.4 °F 46.4 °F 52% 30.23 in 10.0 mi SSW 6.9 mph - N/A   Clear
10:55 AM 66.2 °F 46.4 °F 49% 30.23 in 10.0 mi SSW 5.8 mph - N/A   Clear
11:35 AM 68.0 °F 46.4 °F 46% 30.23 in 10.0 mi Calm Calm - N/A   Clear
11:55 AM 69.8 °F 46.4 °F 43% 30.23 in 10.0 mi Calm Calm - N/A   Clear
12:15 PM 69.8 °F 46.4 °F 43% 30.22 in 10.0 mi Calm Calm - N/A   Clear
12:35 PM 71.6 °F 44.6 °F 38% 30.22 in 10.0 mi Calm Calm - N/A   Clear
1:15 PM 73.4 °F 46.4 °F 38% 30.21 in 10.0 mi South 6.9 mph - N/A   Clear
1:35 PM 73.4 °F 46.4 °F 38% 30.20 in 10.0 mi SSW 4.6 mph - N/A   Clear
1:55 PM 73.4 °F 44.6 °F 36% 30.19 in 10.0 mi Calm Calm - N/A   Clear
2:15 PM 75.2 °F 44.6 °F 34% 30.19 in 10.0 mi Calm Calm - N/A   Clear
2:35 PM 75.2 °F 44.6 °F 34% 30.18 in 10.0 mi South 4.6 mph - N/A   Clear
3:15 PM 75.2 °F 42.8 °F 31% 30.17 in 10.0 mi SSW 6.9 mph - N/A   Clear
3:35 PM 75.2 °F 42.8 °F 31% 30.16 in 10.0 mi South 4.6 mph - N/A   Clear
3:55 PM 75.2 °F 44.6 °F 34% 30.16 in 10.0 mi Calm Calm - N/A   Clear
4:15 PM 75.2 °F 44.6 °F 34% 30.15 in 10.0 mi SSE 5.8 mph - N/A   Clear
4:35 PM 75.2 °F 44.6 °F 34% 30.16 in 10.0 mi SSE 3.5 mph - N/A   Clear
5:15 PM 75.2 °F 44.6 °F 34% 30.16 in 10.0 mi East 3.5 mph - N/A   Clear
5:35 PM 69.8 °F 48.2 °F 46% 30.17 in 10.0 mi NNW 6.9 mph - N/A   Clear
5:55 PM 66.2 °F 46.4 °F 49% 30.17 in 10.0 mi North 3.5 mph - N/A   Clear
6:15 PM 66.2 °F 44.6 °F 46% 30.18 in 10.0 mi Calm Calm - N/A   Clear
6:35 PM 64.4 °F 44.6 °F 49% 30.18 in 10.0 mi Calm Calm - N/A   Clear
6:55 PM 60.8 °F 48.2 °F 63% 30.17 in 10.0 mi Calm Calm - N/A   Clear
7:35 PM 55.4 °F 48.2 °F 77% 30.17 in 10.0 mi Calm Calm - N/A   Clear
7:55 PM 55.4 °F 48.2 °F 77% 30.17 in 10.0 mi Calm Calm - N/A   Clear
8:35 PM 53.6 °F 48.2 °F 82% 30.17 in 10.0 mi Calm Calm - N/A   Clear
8:55 PM 51.8 °F 48.2 °F 88% 30.17 in 10.0 mi Calm Calm - N/A   Clear
9:15 PM 50.0 °F 48.2 °F 94% 30.17 in 10.0 mi Calm Calm - N/A   Clear
9:35 PM 48.2 °F 46.4 °F 93% 30.17 in 10.0 mi Calm Calm - N/A   Clear
9:55 PM 55.4 °F 46.4 °F 72% 30.17 in 10.0 mi South 6.9 mph - N/A   Clear
10:15 PM 62.6 °F 46.4 °F 55% 30.17 in 10.0 mi SSW 8.1 mph - N/A   Clear
10:35 PM 62.6 °F 46.4 °F 55% 30.17 in 10.0 mi South 8.1 mph - N/A   Clear
10:55 PM 57.2 °F 44.6 °F 63% 30.18 in 10.0 mi Calm Calm - N/A   Clear
11:15 PM 51.8 °F 46.4 °F 82% 30.18 in 10.0 mi NW 3.5 mph - N/A   Clear
11:35 PM 50.0 °F 46.4 °F 87% 30.19 in 10.0 mi Calm Calm - N/A   Clear
11:55 PM 48.2 °F 46.4 °F 93% 30.19 in 10.0 mi NNW 3.5 mph - N/A   Clear